createdAt,value
2022-12-14T00:00:15.844Z,2
2022-12-14T00:05:15.851Z,2
2022-12-14T00:10:15.856Z,2
2022-12-14T00:15:15.890Z,2
2022-12-14T00:20:15.864Z,2
2022-12-14T00:25:15.854Z,2
2022-12-14T00:30:15.894Z,2
2022-12-14T00:35:15.791Z,2
2022-12-14T00:40:15.960Z,2
2022-12-14T00:45:18.840Z,2
2022-12-14T00:50:18.753Z,1
2022-12-14T00:55:18.855Z,1
2022-12-14T01:00:18.805Z,2
2022-12-14T01:05:18.888Z,1
2022-12-14T01:10:15.879Z,2
2022-12-14T01:15:15.870Z,3
2022-12-14T01:20:15.841Z,2
2022-12-14T01:25:15.882Z,2
2022-12-14T01:30:15.877Z,3
2022-12-14T01:35:19.063Z,3
2022-12-14T01:40:18.832Z,3
2022-12-14T01:45:15.932Z,3
2022-12-14T01:50:18.891Z,3
2022-12-14T01:55:18.837Z,3
2022-12-14T02:00:18.813Z,2
2022-12-14T02:05:18.856Z,2
2022-12-14T02:10:18.850Z,2
2022-12-14T02:15:15.865Z,3
2022-12-14T02:20:15.878Z,3
2022-12-14T02:25:15.866Z,3
2022-12-14T02:30:15.910Z,2
2022-12-14T02:35:15.945Z,2
2022-12-14T02:40:15.912Z,3
2022-12-14T02:45:18.898Z,2
2022-12-14T02:50:18.909Z,3
2022-12-14T02:55:18.903Z,2
2022-12-14T03:00:18.855Z,2
2022-12-14T03:05:18.864Z,3
2022-12-14T03:10:18.843Z,3
2022-12-14T03:15:18.889Z,2
2022-12-14T03:20:15.928Z,2
2022-12-14T03:25:15.918Z,3
2022-12-14T03:30:37.231Z,2
2022-12-14T03:35:18.907Z,2
2022-12-14T03:40:18.866Z,2
2022-12-14T03:45:18.921Z,1
2022-12-14T03:50:18.908Z,2
2022-12-14T03:55:18.898Z,2
2022-12-14T04:00:18.956Z,2
2022-12-14T04:05:18.877Z,1
2022-12-14T04:10:18.897Z,1
2022-12-14T04:15:16.011Z,2
2022-12-14T04:20:15.977Z,2
2022-12-14T04:25:15.957Z,2
2022-12-14T04:30:16.056Z,2
2022-12-14T04:35:18.957Z,2
2022-12-14T04:40:15.923Z,2
2022-12-14T04:45:15.987Z,2
2022-12-14T04:50:16.016Z,2
2022-12-14T04:55:15.956Z,2
2022-12-14T05:00:17.101Z,3
2022-12-14T05:05:20.274Z,2
2022-12-14T05:10:20.143Z,2
2022-12-14T05:15:20.177Z,2
2022-12-14T05:20:20.259Z,3
2022-12-14T05:25:17.231Z,2
2022-12-14T05:30:17.256Z,3
2022-12-14T05:35:17.263Z,2
2022-12-14T05:40:17.028Z,2
2022-12-14T05:45:17.028Z,2
2022-12-14T05:50:17.222Z,2
2022-12-14T05:55:17.217Z,2
2022-12-14T06:00:20.265Z,1
2022-12-14T06:05:20.192Z,1
2022-12-14T06:10:20.241Z,2
2022-12-14T06:15:17.071Z,2
2022-12-14T06:20:17.246Z,2
2022-12-14T06:25:20.297Z,3
2022-12-14T06:30:17.259Z,8
2022-12-14T06:35:17.264Z,7
2022-12-14T06:40:20.295Z,6
2022-12-14T06:45:20.329Z,4
2022-12-14T06:50:20.282Z,5
2022-12-14T06:55:20.286Z,5
2022-12-14T07:00:17.271Z,7
2022-12-14T07:05:20.248Z,11
2022-12-14T07:10:20.266Z,9
2022-12-14T07:15:17.286Z,7
2022-12-14T07:20:20.348Z,6
2022-12-14T07:25:17.299Z,8
2022-12-14T07:30:17.289Z,7
2022-12-14T07:35:17.360Z,10
2022-12-14T07:40:20.220Z,10
2022-12-14T07:45:20.286Z,9
2022-12-14T07:50:20.261Z,9
2022-12-14T07:55:17.306Z,6
2022-12-14T08:00:17.289Z,8
2022-12-14T08:05:17.116Z,9
2022-12-14T08:10:17.271Z,10
2022-12-14T08:15:17.313Z,9
2022-12-14T08:20:17.305Z,7
2022-12-14T08:25:20.315Z,6
2022-12-14T08:30:20.259Z,5
2022-12-14T08:35:17.382Z,7
2022-12-14T08:40:17.275Z,9
2022-12-14T08:45:20.403Z,10
2022-12-14T08:50:20.275Z,9
2022-12-14T08:55:27.085Z,8
2022-12-14T09:00:17.316Z,7
2022-12-14T09:05:20.397Z,6
2022-12-14T09:10:20.296Z,10
2022-12-14T09:15:20.315Z,11
2022-12-14T09:20:19.378Z,12
2022-12-14T09:25:17.320Z,8
2022-12-14T09:30:21.728Z,7
2022-12-14T09:35:20.317Z,8
2022-12-14T09:40:17.353Z,8
2022-12-14T09:45:17.318Z,6
2022-12-14T09:50:20.405Z,7
2022-12-14T09:55:17.391Z,5
2022-12-14T10:00:20.449Z,4
2022-12-14T10:05:20.343Z,6
2022-12-14T10:10:20.362Z,4
2022-12-14T10:15:17.317Z,6
2022-12-14T10:20:18.520Z,8
2022-12-14T10:25:18.419Z,7
2022-12-14T10:30:17.404Z,7
2022-12-14T10:35:20.387Z,4
2022-12-14T10:40:29.156Z,3
2022-12-14T10:45:55.893Z,4
2022-12-14T10:50:18.382Z,5
2022-12-14T10:55:18.396Z,6
2022-12-14T11:00:22.844Z,5
2022-12-14T11:05:15.435Z,5
2022-12-14T11:10:18.365Z,7
2022-12-14T11:15:15.416Z,5
2022-12-14T11:20:15.584Z,5
2022-12-14T11:25:20.397Z,4
2022-12-14T11:30:18.367Z,5
2022-12-14T11:35:18.355Z,5
2022-12-14T11:40:18.359Z,6
2022-12-14T11:45:18.634Z,3
2022-12-14T11:50:18.387Z,2
2022-12-14T11:55:24.628Z,3
2022-12-14T12:00:18.376Z,5
2022-12-14T12:05:18.424Z,5
2022-12-14T12:10:18.392Z,5
2022-12-14T12:15:18.502Z,4
2022-12-14T12:20:18.362Z,5
2022-12-14T12:25:36.683Z,4
2022-12-14T12:30:15.414Z,3
2022-12-14T12:35:15.641Z,3
2022-12-14T12:40:18.428Z,4
2022-12-14T12:45:15.733Z,3
2022-12-14T12:50:18.437Z,3
2022-12-14T12:55:15.653Z,4
2022-12-14T13:00:15.518Z,4
2022-12-14T13:05:45.749Z,5
2022-12-14T13:10:18.461Z,4
2022-12-14T13:15:18.466Z,4
2022-12-14T13:20:15.548Z,4
2022-12-14T13:25:18.427Z,4
2022-12-14T13:30:18.386Z,5
2022-12-14T13:35:18.431Z,4
2022-12-14T13:40:18.361Z,3
2022-12-14T13:45:18.432Z,3
2022-12-14T13:51:01.059Z,5
2022-12-14T13:55:15.613Z,5
2022-12-14T14:00:18.455Z,4
2022-12-14T14:05:15.470Z,4
2022-12-14T14:10:18.461Z,5
2022-12-14T14:15:22.681Z,3
2022-12-14T14:20:18.459Z,5
2022-12-14T14:25:15.447Z,4
2022-12-14T14:30:18.484Z,5
2022-12-14T14:35:15.524Z,5
2022-12-14T14:40:25.915Z,5
2022-12-14T14:45:18.444Z,3
2022-12-14T14:50:15.518Z,6
2022-12-14T14:55:50.630Z,5
2022-12-14T15:00:18.460Z,4
2022-12-14T15:05:41.413Z,5
2022-12-14T15:10:22.557Z,4
2022-12-14T15:15:15.586Z,4
2022-12-14T15:20:21.195Z,5
2022-12-14T15:25:15.541Z,5
2022-12-14T15:30:15.539Z,6
2022-12-14T15:35:15.504Z,4
2022-12-14T15:40:15.512Z,5
2022-12-14T15:45:15.510Z,5
2022-12-14T15:50:18.523Z,4
2022-12-14T15:55:18.534Z,7
2022-12-14T16:00:18.505Z,4
2022-12-14T16:05:15.517Z,3
2022-12-14T16:10:18.521Z,5
2022-12-14T16:15:18.519Z,6
2022-12-14T16:20:18.467Z,8
2022-12-14T16:25:18.543Z,5
2022-12-14T16:30:18.487Z,4
2022-12-14T16:35:18.515Z,5
2022-12-14T16:40:18.478Z,4
2022-12-14T16:45:15.494Z,7
2022-12-14T16:50:47.671Z,8
2022-12-14T16:55:15.525Z,6
2022-12-14T17:00:15.550Z,6
2022-12-14T17:05:15.636Z,6
2022-12-14T17:10:18.564Z,6
2022-12-14T17:15:18.562Z,4
2022-12-14T17:20:18.535Z,4
2022-12-14T17:25:18.486Z,5
2022-12-14T17:30:18.530Z,4
2022-12-14T17:35:18.560Z,5
2022-12-14T17:40:15.551Z,4
2022-12-14T17:45:18.588Z,4
2022-12-14T17:50:18.517Z,4
2022-12-14T17:55:18.613Z,4
2022-12-14T18:00:15.549Z,5
2022-12-14T18:05:18.595Z,5
2022-12-14T18:10:18.716Z,6
2022-12-14T18:15:15.651Z,7
2022-12-14T18:20:18.655Z,5
2022-12-14T18:25:18.586Z,3
2022-12-14T18:30:16.360Z,5
2022-12-14T18:35:19.354Z,7
2022-12-14T18:40:16.411Z,7
2022-12-14T18:45:19.200Z,4
2022-12-14T18:50:18.754Z,5
2022-12-14T18:55:18.741Z,4
2022-12-14T19:00:18.555Z,8
2022-12-14T19:05:18.542Z,7
2022-12-14T19:10:18.578Z,6
2022-12-14T19:15:18.631Z,6
2022-12-14T19:20:15.566Z,5
2022-12-14T19:25:18.613Z,4
2022-12-14T19:30:18.676Z,6
2022-12-14T19:35:15.579Z,7
2022-12-14T19:40:15.635Z,6
2022-12-14T19:45:15.620Z,6
2022-12-14T19:50:15.650Z,6
2022-12-14T19:55:18.985Z,7
2022-12-14T20:00:18.667Z,7
2022-12-14T20:05:15.442Z,5
2022-12-14T20:10:18.961Z,6
2022-12-14T20:15:18.661Z,4
2022-12-14T20:20:15.655Z,5
2022-12-14T20:25:18.661Z,5
2022-12-14T20:30:15.619Z,3
2022-12-14T20:35:15.715Z,6
2022-12-14T20:40:18.667Z,7
2022-12-14T20:45:15.672Z,6
2022-12-14T20:50:15.685Z,8
2022-12-14T20:55:18.696Z,5
2022-12-14T21:00:18.583Z,6
2022-12-14T21:05:18.607Z,7
2022-12-14T21:10:18.715Z,7
2022-12-14T21:15:18.653Z,8
2022-12-14T21:20:18.634Z,5
2022-12-14T21:25:15.674Z,5
2022-12-14T21:30:18.841Z,6
2022-12-14T21:35:18.738Z,5
2022-12-14T21:40:18.611Z,7
2022-12-14T21:45:18.688Z,4
2022-12-14T21:50:18.643Z,6
2022-12-14T21:55:15.693Z,5
2022-12-14T22:00:15.676Z,5
2022-12-14T22:05:18.689Z,6
2022-12-14T22:10:24.353Z,6
2022-12-14T22:15:15.713Z,5
2022-12-14T22:20:18.677Z,5
2022-12-14T22:25:18.680Z,5
2022-12-14T22:30:18.695Z,6
2022-12-14T22:35:18.658Z,5
2022-12-14T22:40:18.698Z,6
2022-12-14T22:45:15.701Z,5
2022-12-14T22:50:18.683Z,5
2022-12-14T22:55:18.753Z,4
2022-12-14T23:00:18.661Z,6
2022-12-14T23:05:15.690Z,6
2022-12-14T23:10:18.688Z,5
2022-12-14T23:15:18.750Z,5
2022-12-14T23:20:18.742Z,4
2022-12-14T23:25:15.755Z,5
2022-12-14T23:30:15.733Z,3
2022-12-14T23:35:18.833Z,5
2022-12-14T23:40:18.696Z,4
2022-12-14T23:45:18.669Z,3
2022-12-14T23:50:18.710Z,4
2022-12-14T23:55:15.708Z,4
